Time;durP1;ratioP1;P1;durP2;ratioP2;P2;SDS_P1;SDS_P2;PMS_P1;PMS_P2;Temp;Humidity;BMP_temperature;BMP_pressure;BME280_temperature;BME280_humidity;BME280_pressure;Samples;Min_cycle;Max_cycle;Signal;HPM_P1;HPM_P2
2022/03/26 00:02:17;;;;;;;44.70;27.80;;;8.60;76.80;;;;;;5059686;28;20213;-88
2022/03/26 00:04:43;;;;;;;44.33;29.20;;;8.50;76.90;;;;;;5059929;28;20213;-93
2022/03/26 00:07:09;;;;;;;53.50;30.10;;;8.50;77.10;;;;;;5060422;28;20201;-93
2022/03/26 00:09:35;;;;;;;45.67;29.77;;;8.50;77.20;;;;;;5077837;28;20372;-88
2022/03/26 00:12:01;;;;;;;43.88;30.05;;;8.40;77.30;;;;;;5077700;28;20689;-88
2022/03/26 00:14:27;;;;;;;59.37;30.10;;;8.40;77.50;;;;;;5059914;28;20180;-88
2022/03/26 00:16:53;;;;;;;49.97;30.63;;;8.30;77.50;;;;;;5077735;28;20319;-91
2022/03/26 00:19:19;;;;;;;46.22;28.30;;;8.30;77.70;;;;;;5038809;28;20192;-88
2022/03/26 00:21:47;;;;;;;46.83;30.70;;;8.20;77.60;;;;;;5038160;28;20190;-89
2022/03/26 00:24:14;;;;;;;44.53;28.50;;;8.20;78.00;;;;;;5055960;28;20437;-92
2022/03/26 00:26:40;;;;;;;57.55;30.65;;;8.10;78.20;;;;;;5038395;28;20189;-92
2022/03/26 00:29:06;;;;;;;45.85;29.67;;;8.10;78.30;;;;;;5055764;28;20321;-92
2022/03/26 00:31:33;;;;;;;40.85;28.38;;;8.00;78.20;;;;;;5056220;28;20181;-89
2022/03/26 00:33:59;;;;;;;44.65;29.98;;;8.00;78.40;;;;;;5055977;28;20531;-88
2022/03/26 00:36:26;;;;;;;43.53;29.27;;;8.00;78.40;;;;;;5055168;28;20575;-92
2022/03/26 00:38:51;;;;;;;44.08;30.10;;;8.00;79.10;;;;;;5037969;28;20198;-88
2022/03/26 00:41:18;;;;;;;50.13;30.37;;;7.90;78.60;;;;;;5038145;28;20188;-88
2022/03/26 00:43:44;;;;;;;56.58;34.35;;;7.90;78.70;;;;;;5055705;28;20200;-93
2022/03/26 00:46:11;;;;;;;51.83;31.00;;;7.90;78.60;;;;;;5038482;28;20304;-89
2022/03/26 00:48:37;;;;;;;49.90;30.05;;;7.90;78.60;;;;;;5055883;28;20418;-93
2022/03/26 00:51:02;;;;;;;57.07;30.80;;;7.80;78.60;;;;;;5056006;28;20186;-92
2022/03/26 00:53:28;;;;;;;46.23;30.00;;;7.80;78.60;;;;;;5038517;28;20193;-89
2022/03/26 00:55:54;;;;;;;46.77;29.40;;;7.80;78.70;;;;;;5037939;28;20549;-92
2022/03/26 00:58:20;;;;;;;50.33;30.90;;;7.80;78.80;;;;;;5038125;28;20445;-92
2022/03/26 01:00:46;;;;;;;47.47;29.23;;;7.80;78.80;;;;;;5043404;28;20193;-91
2022/03/26 01:03:12;;;;;;;44.17;28.97;;;7.80;78.90;;;;;;5040593;28;20655;-93
2022/03/26 01:05:41;;;;;;;45.13;27.00;;;7.80;79.00;;;;;;5056729;28;20573;-88
2022/03/26 01:08:07;;;;;;;41.33;28.98;;;7.70;79.00;;;;;;5040868;28;20193;-91
2022/03/26 01:10:33;;;;;;;52.07;30.17;;;7.70;79.10;;;;;;5046530;28;20654;-93
2022/03/26 01:12:59;;;;;;;40.00;28.25;;;7.70;79.20;;;;;;5038938;28;20189;-93
2022/03/26 01:15:25;;;;;;;49.50;28.63;;;7.60;79.20;;;;;;5042240;28;20618;-92
2022/03/26 01:17:51;;;;;;;48.77;29.80;;;7.60;79.50;;;;;;5063815;28;20428;-93
2022/03/26 01:20:17;;;;;;;39.43;26.27;;;7.50;79.40;;;;;;5077766;28;20658;-92
2022/03/26 01:22:44;;;;;;;47.50;28.33;;;7.50;80.20;;;;;;5080959;28;20437;-90
2022/03/26 01:25:11;;;;;;;46.40;27.08;;;7.50;80.10;;;;;;5076419;28;20224;-92
2022/03/26 01:27:37;;;;;;;44.13;28.50;;;7.40;80.30;;;;;;5057040;28;20220;-93
2022/03/26 01:30:04;;;;;;;49.00;29.15;;;7.40;80.20;;;;;;5074665;28;20173;-92
2022/03/26 01:32:30;;;;;;;49.75;28.38;;;7.40;80.20;;;;;;5056747;28;20197;-89
2022/03/26 01:34:56;;;;;;;47.25;28.75;;;7.30;80.10;;;;;;5056737;28;20169;-87
2022/03/26 01:37:21;;;;;;;46.30;27.77;;;7.30;80.10;;;;;;5075097;28;20674;-88
2022/03/26 01:39:47;;;;;;;42.60;26.53;;;7.30;80.00;;;;;;5074396;28;20184;-88
2022/03/26 01:42:13;;;;;;;41.90;25.30;;;7.30;79.80;;;;;;5057210;28;20743;-92
2022/03/26 01:44:39;;;;;;;41.27;24.67;;;7.30;79.80;;;;;;5057007;28;20223;-88
2022/03/26 01:47:05;;;;;;;38.57;23.80;;;7.30;79.90;;;;;;5056663;28;20446;-91
2022/03/26 01:49:31;;;;;;;37.33;23.90;;;7.20;79.70;;;;;;5056682;28;20180;-89
2022/03/26 01:51:58;;;;;;;40.92;22.45;;;7.20;79.70;;;;;;5056481;28;20243;-88
2022/03/26 01:54:25;;;;;;;34.28;20.75;;;7.10;79.80;;;;;;5056976;28;20268;-87
2022/03/26 01:56:51;;;;;;;32.97;20.52;;;7.00;79.90;;;;;;5057219;28;20181;-92
2022/03/26 01:59:17;;;;;;;37.17;21.60;;;6.90;80.10;;;;;;5057110;28;20180;-88
2022/03/26 02:01:43;;;;;;;32.95;20.80;;;6.90;80.40;;;;;;5057469;28;20768;-93
2022/03/26 02:04:09;;;;;;;38.25;21.08;;;6.90;80.50;;;;;;5061529;28;20177;-91
2022/03/26 02:06:37;;;;;;;37.53;21.80;;;6.80;80.70;;;;;;5058960;28;20646;-88
2022/03/26 02:09:05;;;;;;;33.67;21.05;;;6.90;80.80;;;;;;5058105;28;20515;-93
2022/03/26 02:11:32;;;;;;;28.25;19.60;;;6.80;81.00;;;;;;5060372;28;20274;-89
2022/03/26 02:13:58;;;;;;;48.10;23.08;;;6.90;81.10;;;;;;5066547;28;20177;-87
2022/03/26 02:16:25;;;;;;;36.08;21.13;;;6.90;81.10;;;;;;5074416;28;20273;-87
2022/03/26 02:18:52;;;;;;;46.40;22.85;;;6.90;80.90;;;;;;5044397;28;20208;-92
2022/03/26 02:21:19;;;;;;;38.53;21.48;;;6.90;80.90;;;;;;5045185;28;20186;-88
2022/03/26 02:23:46;;;;;;;34.53;21.20;;;6.90;80.90;;;;;;5067159;28;20705;-89
2022/03/26 02:26:25;;;;;;;36.83;21.65;;;6.90;81.00;;;;;;5059439;28;20340;-88
2022/03/26 02:28:53;;;;;;;40.00;22.63;;;6.90;80.80;;;;;;5036328;28;20198;-88
2022/03/26 02:31:19;;;;;;;42.28;21.70;;;6.90;80.90;;;;;;5036815;28;20184;-92
2022/03/26 02:33:45;;;;;;;36.80;21.97;;;6.90;81.00;;;;;;5036615;28;20288;-87
2022/03/26 02:36:11;;;;;;;41.57;23.77;;;6.80;81.10;;;;;;5036634;28;20961;-92
2022/03/26 02:38:37;;;;;;;41.92;22.40;;;6.80;81.30;;;;;;5036858;28;20997;-88
2022/03/26 02:41:07;;;;;;;37.50;23.20;;;6.70;81.30;;;;;;5053772;28;20174;-87
2022/03/26 02:43:32;;;;;;;41.58;24.20;;;6.70;82.20;;;;;;5054065;28;20281;-90
2022/03/26 02:45:58;;;;;;;44.20;22.43;;;6.60;81.50;;;;;;5036769;28;20304;-92
2022/03/26 02:48:24;;;;;;;39.33;23.03;;;6.60;81.60;;;;;;5054709;28;20462;-92
2022/03/26 02:50:50;;;;;;;35.20;22.47;;;6.60;81.80;;;;;;5056507;28;20946;-92
2022/03/26 02:53:16;;;;;;;37.78;22.60;;;6.50;81.80;;;;;;5038052;28;20548;-93
2022/03/26 02:55:43;;;;;;;42.70;23.90;;;6.50;81.80;;;;;;5040502;28;20182;-88
2022/03/26 02:58:09;;;;;;;36.40;23.45;;;6.50;82.00;;;;;;5040076;28;20206;-89
2022/03/26 03:00:37;;;;;;;38.78;23.52;;;6.40;82.10;;;;;;5040762;28;20185;-88
2022/03/26 03:03:04;;;;;;;38.35;23.95;;;6.40;82.30;;;;;;5041730;28;20205;-87
2022/03/26 03:05:30;;;;;;;32.95;20.80;;;6.30;82.10;;;;;;5043011;28;20214;-89
2022/03/26 03:07:56;;;;;;;38.05;24.30;;;6.30;82.30;;;;;;5042477;28;20624;-88
2022/03/26 03:10:22;;;;;;;41.10;24.33;;;6.30;82.50;;;;;;5043243;28;20185;-92
2022/03/26 03:12:48;;;;;;;36.63;22.73;;;6.20;82.60;;;;;;5040396;28;20201;-89
2022/03/26 03:15:18;;;;;;;41.85;23.17;;;6.20;82.80;;;;;;5058843;28;20197;-93
2022/03/26 03:17:46;;;;;;;43.13;23.45;;;6.20;82.80;;;;;;5069643;28;20259;-87
2022/03/26 03:20:12;;;;;;;39.70;23.05;;;6.20;83.00;;;;;;5088251;28;20671;-93
2022/03/26 03:22:38;;;;;;;44.00;24.42;;;6.20;82.90;;;;;;5059173;28;20300;-90
2022/03/26 03:25:08;;;;;;;38.97;23.10;;;6.20;82.90;;;;;;5076769;28;20216;-87
2022/03/26 03:27:34;;;;;;;37.08;23.52;;;6.20;82.70;;;;;;5077117;28;20201;-87
2022/03/26 03:29:59;;;;;;;37.20;23.08;;;6.20;82.70;;;;;;5058765;28;20548;-88
2022/03/26 03:32:26;;;;;;;37.20;23.10;;;6.10;82.80;;;;;;5076795;28;20197;-87
2022/03/26 03:34:52;;;;;;;46.40;24.75;;;6.10;82.90;;;;;;5076800;28;20170;-92
2022/03/26 03:37:19;;;;;;;40.92;24.73;;;6.10;83.00;;;;;;5059599;28;20310;-92
2022/03/26 03:39:45;;;;;;;43.72;24.55;;;6.10;82.90;;;;;;5061164;28;20177;-87
2022/03/26 03:42:11;;;;;;;37.60;24.13;;;6.10;82.90;;;;;;5059005;28;20201;-93
2022/03/26 03:44:37;;;;;;;36.15;24.75;;;6.00;83.10;;;;;;5063992;28;20276;-91
2022/03/26 03:47:04;;;;;;;39.22;23.45;;;6.00;83.30;;;;;;5079713;28;20200;-93
2022/03/26 03:49:31;;;;;;;33.03;22.77;;;5.90;83.30;;;;;;5059289;28;20173;-88
2022/03/26 03:52:00;;;;;;;37.38;24.10;;;5.90;83.40;;;;;;5077220;28;20234;-88
2022/03/26 03:54:27;;;;;;;42.50;24.60;;;5.80;83.50;;;;;;5077832;28;20256;-88
2022/03/26 03:56:52;;;;;;;43.90;22.83;;;5.80;83.70;;;;;;5060153;28;20291;-88
2022/03/26 03:59:18;;;;;;;44.47;23.57;;;5.80;83.90;;;;;;5059625;28;20205;-88
2022/03/26 04:01:44;;;;;;;40.03;23.67;;;5.80;83.80;;;;;;5060604;28;20636;-89
2022/03/26 04:04:10;;;;;;;45.60;24.60;;;5.80;83.80;;;;;;5078294;28;20377;-92
2022/03/26 04:06:37;;;;;;;42.50;23.42;;;5.80;83.90;;;;;;5060283;28;20173;-88
2022/03/26 04:09:03;;;;;;;43.58;24.08;;;5.80;83.80;;;;;;5060195;28;20685;-88
2022/03/26 04:11:29;;;;;;;36.83;22.93;;;5.80;83.60;;;;;;5077139;28;20181;-89
2022/03/26 04:13:55;;;;;;;37.53;23.93;;;5.80;83.50;;;;;;5060352;28;20438;-91
2022/03/26 04:16:21;;;;;;;36.33;23.90;;;5.70;83.60;;;;;;5050889;28;20214;-93
2022/03/26 04:18:46;;;;;;;38.45;24.33;;;5.70;83.80;;;;;;5050480;28;20472;-92
2022/03/26 04:21:13;;;;;;;41.80;23.60;;;5.70;84.00;;;;;;5068890;28;20213;-89
2022/03/26 04:23:39;;;;;;;37.72;25.45;;;5.70;84.10;;;;;;5044556;28;20289;-90
2022/03/26 04:26:06;;;;;;;38.33;23.10;;;5.60;84.30;;;;;;5038062;28;20257;-88
2022/03/26 04:28:32;;;;;;;41.53;25.27;;;5.60;84.50;;;;;;5038244;28;20265;-92
2022/03/26 04:30:57;;;;;;;36.90;21.30;;;5.60;84.60;;;;;;5038493;28;20572;-88
2022/03/26 04:33:23;;;;;;;39.33;23.07;;;5.60;84.70;;;;;;5055839;28;20201;-89
2022/03/26 04:35:49;;;;;;;39.23;23.70;;;5.50;84.70;;;;;;5056240;28;20182;-89
2022/03/26 04:38:14;;;;;;;40.23;24.30;;;5.50;84.90;;;;;;5038249;28;20258;-92
2022/03/26 04:40:40;;;;;;;33.60;23.90;;;5.50;84.90;;;;;;5038328;28;20190;-93
2022/03/26 04:43:06;;;;;;;42.90;25.37;;;5.50;85.00;;;;;;5056056;28;20477;-88
2022/03/26 04:45:32;;;;;;;42.83;23.37;;;5.40;85.10;;;;;;5038040;28;20228;-92
2022/03/26 04:47:58;;;;;;;42.55;24.35;;;5.40;85.30;;;;;;5038183;28;20197;-93
2022/03/26 04:50:24;;;;;;;38.38;24.40;;;5.40;85.30;;;;;;5055454;28;20712;-93
2022/03/26 04:52:50;;;;;;;39.53;26.83;;;5.40;85.40;;;;;;5055511;28;20276;-92
2022/03/26 04:55:18;;;;;;;40.25;23.92;;;5.40;85.60;;;;;;5037702;28;20751;-92
2022/03/26 04:57:46;;;;;;;41.63;24.85;;;5.40;85.70;;;;;;5037831;28;20194;-93
2022/03/26 05:00:14;;;;;;;47.58;25.67;;;5.40;85.90;;;;;;5037939;28;20521;-88
2022/03/26 05:02:40;;;;;;;35.30;24.70;;;5.50;86.00;;;;;;5055311;28;20551;-92
2022/03/26 05:05:07;;;;;;;44.47;27.90;;;5.50;86.10;;;;;;5037700;28;20205;-88
2022/03/26 05:07:48;;;;;;;47.47;26.02;;;5.50;85.90;;;;;;5037632;28;20408;-92
2022/03/26 05:10:22;;;;;;;42.42;24.83;;;5.60;86.00;;;;;;5055870;28;20238;-92
2022/03/26 05:12:49;;;;;;;45.85;25.20;;;5.60;86.40;;;;;;5038224;28;20233;-88
2022/03/26 05:15:16;;;;;;;42.95;26.83;;;5.70;86.40;;;;;;5060447;28;20600;-91
2022/03/26 05:17:42;;;;;;;42.15;27.58;;;5.70;86.30;;;;;;5074211;28;20713;-87
2022/03/26 05:20:10;;;;;;;45.77;28.80;;;5.70;86.30;;;;;;5091018;28;20184;-88
2022/03/26 05:22:36;;;;;;;50.67;30.35;;;5.80;86.30;;;;;;5069849;28;20400;-93
2022/03/26 05:25:02;;;;;;;47.83;28.55;;;5.80;86.40;;;;;;5057336;28;20223;-92
2022/03/26 05:27:28;;;;;;;52.25;31.02;;;5.90;86.50;;;;;;5059975;28;20681;-91
2022/03/26 05:29:54;;;;;;;50.73;29.40;;;5.90;86.30;;;;;;5062780;28;20249;-86
2022/03/26 05:32:20;;;;;;;47.10;27.48;;;6.00;86.00;;;;;;5058519;28;20209;-92
2022/03/26 05:34:46;;;;;;;53.80;29.10;;;6.10;86.30;;;;;;5057800;28;20177;-90
2022/03/26 05:37:13;;;;;;;59.10;29.27;;;6.10;86.10;;;;;;5075920;28;20449;-93
2022/03/26 05:39:39;;;;;;;62.95;31.13;;;6.20;86.10;;;;;;5075615;28;20207;-92
2022/03/26 05:42:05;;;;;;;60.50;28.50;;;6.30;86.10;;;;;;5075587;28;20605;-88
2022/03/26 05:44:31;;;;;;;51.75;28.35;;;6.40;86.20;;;;;;5074876;28;20212;-92
2022/03/26 05:46:57;;;;;;;41.77;25.13;;;6.40;86.30;;;;;;5057348;28;20197;-92
2022/03/26 05:49:23;;;;;;;41.23;25.50;;;6.50;86.40;;;;;;5057326;28;20381;-87
2022/03/26 05:51:49;;;;;;;42.47;24.42;;;6.60;86.40;;;;;;5075161;28;20394;-93
2022/03/26 05:54:16;;;;;;;102.28;43.67;;;6.70;86.30;;;;;;5057076;28;20673;-87
2022/03/26 05:56:51;;;;;;;102.47;47.75;;;6.90;86.10;;;;;;5056794;28;20180;-88
2022/03/26 05:59:21;;;;;;;102.05;51.38;;;7.00;86.10;;;;;;5057232;28;20259;-88
2022/03/26 06:01:51;;;;;;;104.88;50.78;;;7.20;86.00;;;;;;5057156;28;20634;-92
2022/03/26 06:04:17;;;;;;;114.55;47.40;;;7.30;85.70;;;;;;5074580;28;20173;-87
2022/03/26 06:06:43;;;;;;;94.53;39.30;;;7.40;85.50;;;;;;5075547;28;20681;-88
2022/03/26 06:09:10;;;;;;;67.45;37.30;;;7.50;85.50;;;;;;5057230;28;20184;-92
2022/03/26 06:11:36;;;;;;;67.60;35.35;;;7.70;85.40;;;;;;5058207;28;20600;-93
2022/03/26 06:14:03;;;;;;;59.40;30.90;;;7.90;85.50;;;;;;5059202;28;20200;-93
2022/03/26 06:16:28;;;;;;;44.25;27.35;;;8.00;85.20;;;;;;5047254;28;20232;-88
2022/03/26 06:18:54;;;;;;;44.73;24.53;;;8.20;85.30;;;;;;5044602;28;20190;-87
2022/03/26 06:21:20;;;;;;;48.63;29.70;;;8.30;85.50;;;;;;5054670;28;20178;-87
2022/03/26 06:23:46;;;;;;;64.97;36.27;;;8.50;85.70;;;;;;5036256;28;20517;-92
2022/03/26 06:26:12;;;;;;;47.13;31.13;;;8.70;86.10;;;;;;5036524;28;20457;-88
2022/03/26 06:28:38;;;;;;;55.47;34.85;;;8.80;85.60;;;;;;5036759;28;20435;-90
2022/03/26 06:31:04;;;;;;;41.70;29.80;;;8.90;85.00;;;;;;5036788;28;20194;-92
2022/03/26 06:33:30;;;;;;;38.27;22.53;;;9.10;84.80;;;;;;5037851;28;20745;-88
2022/03/26 06:35:56;;;;;;;34.63;21.50;;;9.20;84.80;;;;;;5058776;28;20746;-88
2022/03/26 06:38:21;;;;;;;32.77;19.30;;;9.30;84.90;;;;;;5061141;28;20201;-93
2022/03/26 06:40:48;;;;;;;28.90;16.17;;;9.50;84.50;;;;;;5057757;28;20189;-92
2022/03/26 06:43:14;;;;;;;31.00;19.15;;;9.70;84.20;;;;;;5041121;28;20200;-91
2022/03/26 06:45:40;;;;;;;21.48;14.40;;;9.80;84.00;;;;;;5061122;28;20284;-90
2022/03/26 06:48:07;;;;;;;19.92;13.85;;;10.00;83.90;;;;;;5045100;28;20288;-93
2022/03/26 06:50:33;;;;;;;28.02;14.07;;;10.20;83.60;;;;;;5063495;28;20181;-89
2022/03/26 06:52:59;;;;;;;16.93;13.47;;;10.40;83.50;;;;;;5058390;28;20205;-93
2022/03/26 06:55:25;;;;;;;38.30;20.67;;;10.60;83.10;;;;;;5057674;28;20237;-92
2022/03/26 06:57:52;;;;;;;25.63;15.48;;;10.80;82.00;;;;;;5058403;28;20615;-88
2022/03/26 07:00:18;;;;;;;55.65;35.22;;;11.00;81.10;;;;;;5074437;28;20268;-90
2022/03/26 07:02:44;;;;;;;40.50;26.77;;;11.20;81.10;;;;;;5069275;28;20499;-88
2022/03/26 07:05:12;;;;;;;38.70;24.40;;;11.40;80.50;;;;;;5074045;28;20253;-93
2022/03/26 07:07:38;;;;;;;38.63;25.23;;;11.60;79.70;;;;;;5053727;28;20424;-87
2022/03/26 07:10:04;;;;;;;26.25;16.50;;;11.80;78.90;;;;;;5046423;28;20553;-87
2022/03/26 07:12:30;;;;;;;21.08;15.10;;;12.00;77.70;;;;;;5051191;28;20631;-87
2022/03/26 07:14:57;;;;;;;25.63;16.13;;;12.20;76.80;;;;;;5058885;28;20279;-88
2022/03/26 07:17:23;;;;;;;23.83;14.50;;;12.50;76.30;;;;;;5055460;28;20975;-89
2022/03/26 07:19:51;;;;;;;17.17;11.67;;;12.70;76.00;;;;;;5049747;28;20189;-91
2022/03/26 07:22:17;;;;;;;13.27;9.90;;;12.90;75.50;;;;;;5058598;28;20810;-87
2022/03/26 07:24:43;;;;;;;11.13;9.32;;;13.10;73.60;;;;;;5069033;28;20674;-87
2022/03/26 07:27:08;;;;;;;15.40;11.50;;;13.30;73.30;;;;;;5053709;28;20197;-88
2022/03/26 07:29:35;;;;;;;12.13;9.50;;;13.50;72.60;;;;;;5050684;28;20188;-87
2022/03/26 07:32:01;;;;;;;14.23;9.77;;;13.80;72.50;;;;;;5062635;28;20276;-92
2022/03/26 07:34:27;;;;;;;15.77;10.37;;;14.00;72.30;;;;;;5041982;28;20795;-88
2022/03/26 07:36:53;;;;;;;18.23;10.67;;;14.10;72.20;;;;;;5051371;28;20209;-93
2022/03/26 07:39:21;;;;;;;12.50;9.63;;;14.30;72.40;;;;;;5077906;28;20189;-93
2022/03/26 07:41:47;;;;;;;15.73;9.77;;;14.50;72.30;;;;;;5045494;28;20441;-87
2022/03/26 07:44:13;;;;;;;15.37;10.77;;;14.70;71.70;;;;;;5046591;28;20417;-89
2022/03/26 07:46:39;;;;;;;11.97;9.40;;;14.80;71.80;;;;;;5047403;28;20579;-87
2022/03/26 07:49:05;;;;;;;12.33;8.50;;;14.90;71.50;;;;;;5050965;28;20418;-88
2022/03/26 07:51:31;;;;;;;12.40;9.00;;;15.10;71.40;;;;;;5047581;28;20241;-88
2022/03/26 07:54:00;;;;;;;11.83;9.10;;;15.30;71.60;;;;;;5046237;28;20422;-87
2022/03/26 07:56:25;;;;;;;17.40;9.20;;;15.50;71.60;;;;;;5060186;28;20818;-91
2022/03/26 07:58:54;;;;;;;14.13;10.23;;;15.60;71.10;;;;;;5074218;28;20441;-88
2022/03/26 08:01:38;;;;;;;17.43;9.63;;;15.80;71.10;;;;;;5050442;28;20227;-87
2022/03/26 08:04:13;;;;;;;16.23;11.57;;;16.00;70.20;;;;;;5041862;28;20407;-92
2022/03/26 08:06:39;;;;;;;17.03;10.90;;;16.20;69.90;;;;;;5043390;28;20476;-87
2022/03/26 08:09:05;;;;;;;16.87;11.90;;;16.30;69.60;;;;;;5044280;28;20415;-90
2022/03/26 08:11:31;;;;;;;22.53;11.13;;;16.50;69.70;;;;;;5034953;28;20193;-92
2022/03/26 08:14:01;;;;;;;13.23;10.60;;;16.60;69.40;;;;;;5036448;28;20821;-87
2022/03/26 08:16:27;;;;;;;32.50;19.57;;;16.80;68.60;;;;;;5048122;28;20461;-87
2022/03/26 08:18:52;;;;;;;11.27;8.07;;;16.90;68.80;;;;;;5060164;28;20251;-92
2022/03/26 08:21:20;;;;;;;14.00;10.13;;;17.10;68.20;;;;;;5046207;28;20420;-87
2022/03/26 08:23:46;;;;;;;12.23;8.23;;;17.30;68.20;;;;;;5064510;28;20473;-92
2022/03/26 08:26:26;;;;;;;10.07;7.27;;;17.40;68.00;;;;;;5042192;28;20473;-93
2022/03/26 08:28:57;;;;;;;9.00;6.70;;;17.60;67.60;;;;;;5058704;28;20433;-86
2022/03/26 08:31:24;;;;;;;15.83;10.00;;;18.00;67.80;;;;;;5046530;28;20943;-87
2022/03/26 08:33:50;;;;;;;11.87;8.80;;;18.50;67.40;;;;;;5059398;28;20974;-86
2022/03/26 08:36:17;;;;;;;10.20;7.47;;;19.20;65.50;;;;;;5057404;28;20435;-86
2022/03/26 08:38:45;;;;;;;6.33;5.40;;;20.20;63.50;;;;;;5037029;28;20467;-87
2022/03/26 08:41:12;;;;;;;7.77;6.30;;;21.10;62.10;;;;;;5043116;28;20437;-87
2022/03/26 08:43:38;;;;;;;6.67;5.37;;;22.00;60.60;;;;;;5048705;28;20452;-87
2022/03/26 08:46:04;;;;;;;9.73;6.67;;;23.00;59.30;;;;;;5046192;28;21023;-91
2022/03/26 08:48:31;;;;;;;10.77;7.23;;;23.70;58.60;;;;;;5051327;28;20466;-90
2022/03/26 08:50:57;;;;;;;9.43;6.27;;;24.30;58.60;;;;;;5050373;28;20437;-91
2022/03/26 08:53:23;;;;;;;7.90;5.33;;;24.80;55.00;;;;;;5043177;28;20462;-92
2022/03/26 08:55:51;;;;;;;7.20;5.60;;;25.60;55.10;;;;;;5043288;28;20919;-90
2022/03/26 08:58:20;;;;;;;10.07;6.30;;;26.00;53.70;;;;;;5040393;28;20454;-89
2022/03/26 09:00:47;;;;;;;12.63;6.90;;;26.30;54.10;;;;;;5040647;28;20423;-90
2022/03/26 09:04:00;;;;;;;;;;;;;;;;;;;;;
2022/03/26 09:06:26;;;;;;;9.27;5.53;;;26.90;51.70;;;;;;5065915;28;20570;-89
2022/03/26 09:08:52;;;;;;;9.43;6.63;;;26.70;51.80;;;;;;5039598;28;20475;-91
2022/03/26 09:11:18;;;;;;;11.47;7.33;;;26.50;51.70;;;;;;5042590;28;20173;-88
2022/03/26 09:13:45;;;;;;;7.80;6.60;;;26.40;52.20;;;;;;5066043;28;20450;-90
2022/03/26 09:16:22;;;;;;;8.30;6.40;;;26.40;52.20;;;;;;5065608;28;20858;-87
2022/03/26 09:18:52;;;;;;;9.73;5.87;;;26.20;52.60;;;;;;5060718;28;20473;-89
2022/03/26 09:21:17;;;;;;;10.60;6.30;;;26.10;52.20;;;;;;5056131;28;20515;-87
2022/03/26 09:23:46;;;;;;;7.67;6.63;;;25.80;51.50;;;;;;5047696;28;20523;-88
2022/03/26 09:26:13;;;;;;;11.60;7.00;;;25.70;52.80;;;;;;5046704;28;20243;-87
2022/03/26 09:28:39;;;;;;;8.13;6.53;;;25.50;51.50;;;;;;5038073;28;20994;-91
2022/03/26 09:31:05;;;;;;;10.30;7.80;;;25.40;52.70;;;;;;5038038;28;20421;-90
2022/03/26 09:33:34;;;;;;;11.77;7.17;;;25.40;51.10;;;;;;5040963;28;20446;-90
2022/03/26 09:36:00;;;;;;;9.53;7.17;;;25.30;52.30;;;;;;5053613;28;20178;-88
2022/03/26 09:38:29;;;;;;;11.57;7.73;;;25.30;51.70;;;;;;5050981;28;20486;-89
2022/03/26 09:40:58;;;;;;;13.30;8.00;;;25.40;51.40;;;;;;5075807;28;20433;-91
2022/03/26 09:43:26;;;;;;;11.47;7.93;;;25.50;51.30;;;;;;5061521;28;20540;-86
2022/03/26 09:45:52;;;;;;;14.33;7.50;;;25.70;51.20;;;;;;5045747;28;20491;-87
2022/03/26 09:48:18;;;;;;;8.23;6.90;;;26.10;51.00;;;;;;5061350;28;20452;-87
2022/03/26 09:50:44;;;;;;;10.30;7.97;;;26.40;51.10;;;;;;5041432;28;20330;-89
2022/03/26 09:53:12;;;;;;;7.03;5.30;;;26.60;51.20;;;;;;5044091;28;20708;-87
2022/03/26 09:55:39;;;;;;;10.40;6.67;;;26.70;50.90;;;;;;5046251;28;20451;-88
2022/03/26 09:58:05;;;;;;;9.20;7.20;;;26.70;49.50;;;;;;5054762;28;20456;-89
2022/03/26 10:00:31;;;;;;;9.17;6.10;;;26.60;50.80;;;;;;5069032;28;20527;-87
2022/03/26 10:02:57;;;;;;;10.37;6.50;;;26.50;50.00;;;;;;5050024;28;20490;-89
2022/03/26 10:05:32;;;;;;;8.87;6.80;;;26.50;50.30;;;;;;5062271;28;20461;-91
2022/03/26 10:08:13;;;;;;;9.40;7.07;;;26.40;49.90;;;;;;5036500;28;20787;-92
2022/03/26 10:10:45;;;;;;;8.60;6.33;;;26.40;50.80;;;;;;5046323;28;20505;-87
2022/03/26 10:13:11;;;;;;;7.50;6.40;;;26.40;50.40;;;;;;5072971;28;20449;-88
2022/03/26 10:15:37;;;;;;;8.43;6.90;;;26.10;48.80;;;;;;5051433;28;20428;-93
2022/03/26 10:18:09;;;;;;;9.87;6.20;;;25.80;49.20;;;;;;5062085;28;20874;-92
2022/03/26 10:20:35;;;;;;;10.60;6.63;;;25.30;48.40;;;;;;5047064;28;20237;-88
2022/03/26 10:23:01;;;;;;;7.27;6.27;;;25.00;49.70;;;;;;5050307;28;20455;-91
2022/03/26 10:25:27;;;;;;;11.93;6.67;;;24.80;51.20;;;;;;5066488;28;20222;-88
2022/03/26 10:27:59;;;;;;;8.43;6.37;;;24.50;50.30;;;;;;5054229;28;20288;-90
2022/03/26 10:33:22;;;;;;;7.90;6.97;;;24.10;52.10;;;;;;5068036;28;20465;-88
2022/03/26 10:35:55;;;;;;;11.40;6.27;;;23.90;54.10;;;;;;5067024;28;20452;-87
2022/03/26 10:38:42;;;;;;;9.37;6.30;;;23.60;55.00;;;;;;5050690;28;20454;-87
2022/03/26 10:41:10;;;;;;;8.27;6.47;;;23.60;52.50;;;;;;5057733;28;20421;-88
2022/03/26 10:43:37;;;;;;;6.53;5.70;;;23.60;51.00;;;;;;5073285;28;20439;-87
2022/03/26 10:46:04;;;;;;;6.83;5.27;;;23.60;51.50;;;;;;5049842;28;20466;-89
2022/03/26 10:48:32;;;;;;;6.80;5.30;;;23.60;50.50;;;;;;5048685;28;20503;-89
2022/03/26 10:51:00;;;;;;;10.30;5.77;;;23.60;51.80;;;;;;5038009;28;20419;-90
2022/03/26 10:53:54;;;;;;;12.83;7.10;;;23.50;51.90;;;;;;5046957;28;20454;-88
2022/03/26 10:56:20;;;;;;;6.63;5.93;;;23.50;50.50;;;;;;5049926;28;20502;-90
2022/03/26 10:58:46;;;;;;;9.03;6.83;;;23.40;51.10;;;;;;5066591;28;20433;-90
2022/03/26 11:01:12;;;;;;;8.33;5.63;;;23.40;51.90;;;;;;5065584;28;20968;-90
2022/03/26 11:03:38;;;;;;;5.80;4.93;;;23.40;52.00;;;;;;5063996;28;20200;-92
2022/03/26 11:06:09;;;;;;;6.53;5.10;;;23.30;50.70;;;;;;5058108;28;20458;-94
2022/03/26 11:08:36;;;;;;;6.43;5.00;;;23.20;50.10;;;;;;5053999;28;20619;-92
2022/03/26 11:11:06;;;;;;;9.80;5.70;;;23.00;50.80;;;;;;5042848;28;20422;-91
2022/03/26 11:13:34;;;;;;;10.33;5.27;;;22.80;51.10;;;;;;5063581;28;20483;-90
2022/03/26 11:16:07;;;;;;;5.80;4.97;;;22.80;50.80;;;;;;5040316;28;20655;-91
2022/03/26 11:19:10;;;;;;;8.07;4.70;;;22.80;50.60;;;;;;5060973;28;20438;-89
2022/03/26 11:21:58;;;;;;;6.90;5.03;;;22.70;50.60;;;;;;5054978;28;20525;-90
2022/03/26 11:24:54;;;;;;;5.23;4.53;;;22.60;50.90;;;;;;5046778;28;20429;-90
2022/03/26 11:27:23;;;;;;;4.60;4.13;;;22.70;53.50;;;;;;5051811;28;20453;-90
2022/03/26 11:30:22;;;;;;;7.93;5.27;;;22.70;50.80;;;;;;5049520;28;20517;-90
2022/03/26 11:32:52;;;;;;;6.27;4.60;;;22.90;50.80;;;;;;5067191;28;20470;-90
2022/03/26 11:35:19;;;;;;;7.90;5.30;;;23.00;50.20;;;;;;5048275;28;20453;-90
2022/03/26 11:38:02;;;;;;;5.30;4.73;;;23.10;52.30;;;;;;5058575;28;20449;-90
2022/03/26 11:40:48;;;;;;;7.57;5.10;;;23.20;51.70;;;;;;5045810;28;20441;-90
2022/03/26 11:43:38;;;;;;;10.60;6.60;;;23.30;51.60;;;;;;5057726;28;20817;-90
2022/03/26 11:51:40;;;;;;;11.43;5.50;;;23.40;51.90;;;;;;5072210;28;20456;-90
2022/03/26 11:54:12;;;;;;;6.10;5.50;;;23.40;52.60;;;;;;5059546;28;20425;-90
2022/03/26 11:56:38;;;;;;;7.60;5.40;;;23.20;52.60;;;;;;5089825;28;20473;-89
2022/03/26 11:59:03;;;;;;;7.10;4.97;;;23.00;53.50;;;;;;5073355;28;20912;-86
2022/03/26 12:01:51;;;;;;;9.40;5.87;;;22.90;53.50;;;;;;5066988;28;20253;-88
2022/03/26 12:04:21;;;;;;;6.03;4.70;;;22.70;54.50;;;;;;5042770;28;20538;-89
2022/03/26 12:06:54;;;;;;;6.07;4.47;;;22.70;52.20;;;;;;5059606;28;20453;-88
2022/03/26 12:09:33;;;;;;;10.17;5.30;;;22.60;55.20;;;;;;5040649;28;20414;-89
2022/03/26 12:12:05;;;;;;;6.57;5.00;;;22.40;54.20;;;;;;5041433;28;20938;-89
2022/03/26 12:14:52;;;;;;;8.93;4.87;;;22.50;53.00;;;;;;5065144;28;20411;-88
2022/03/26 12:17:43;;;;;;;6.83;5.10;;;22.30;55.30;;;;;;5066455;28;20488;-89
2022/03/26 12:20:19;;;;;;;5.87;4.87;;;22.10;56.80;;;;;;5030967;28;20417;-89
2022/03/26 12:22:48;;;;;;;6.70;4.80;;;22.00;54.00;;;;;;5053852;28;20462;-88
2022/03/26 12:25:16;;;;;;;6.27;4.10;;;22.10;54.40;;;;;;5053308;28;20750;-88
2022/03/26 12:27:44;;;;;;;6.53;5.20;;;22.00;55.90;;;;;;5048544;28;20454;-89
2022/03/26 12:30:10;;;;;;;7.23;4.40;;;22.00;52.10;;;;;;5042273;28;20427;-89
2022/03/26 12:32:36;;;;;;;7.10;4.40;;;22.20;51.30;;;;;;5052367;28;20451;-90
2022/03/26 12:35:06;;;;;;;5.33;4.20;;;22.10;54.40;;;;;;5056261;28;20409;-89
2022/03/26 12:37:33;;;;;;;7.27;4.90;;;22.20;53.10;;;;;;5072670;28;20193;-88
2022/03/26 12:40:00;;;;;;;5.30;4.40;;;21.90;55.60;;;;;;5038926;28;20437;-89
2022/03/26 12:42:26;;;;;;;6.90;4.87;;;21.90;55.50;;;;;;5065611;28;20435;-89
2022/03/26 12:44:53;;;;;;;6.90;4.40;;;21.90;53.80;;;;;;5058469;28;20458;-89
2022/03/26 12:47:23;;;;;;;6.93;4.33;;;21.80;56.40;;;;;;5036177;28;20808;-89
2022/03/26 12:49:50;;;;;;;7.20;4.47;;;21.60;57.50;;;;;;5037215;28;20525;-89
2022/03/26 12:52:20;;;;;;;9.87;5.10;;;21.40;57.30;;;;;;5037625;28;20445;-89